Aérodrome :
LOGIN :

S'inscrire | Disclaimer

   EN    FR    IT 

 










Légende :    VFR   VFR Marginal   IFR   IFR Intensif   IFR Très Intensif
Visi : 
Plafond : 
>= 8 km
>= 3000ft
5 à 8 km
1000 à 3000 ft
1500m à 5 km
500 à 1000 ft
800 à 1500m
200 à 500 ft
< 800m
< 200 ft
Symboles :   Orages  Brouillard  Fortes neiges  Fortes précipitations  Vent > 20 kt
SIGMETs :   Divers  Orages  Givrage  Turbulence  Onde Orograph.  Cendres Volcan.






- Altitude de l'aérodrome : 425 ft
- Code IATA : DTM


EDLW - Dortmund

DERNIER METAR :
  • 062250Z AUTO 23007KT 9999 // NCD 10/06 Q1026

METARs EXPIRÉS :
  • 062220Z AUTO 25005KT 220V280 9999 // NCD 11/07 Q1026
  • 062150Z AUTO 23004KT 200V260 9999 // NCD 13/06 Q1025
  • 062120Z AUTO 31004KT 270V360 9999 // NCD 13/05 Q1025
  • 062050Z AUTO 29007KT 260V340 9999 // NCD 15/06 Q1024
  • 062020Z AUTO 27007KT 230V310 9999 // SCT091/// 16/05 Q1024

TAF TAF EDLW
Valide du 06 à 14h jusqu'au 07 à 12h UTC


061320Z 0614/0712 22012KT CAVOK
BECMG 0616/0618 22007KT
BECMG 0623/0702 VRB03KT
PROB30
TEMPO 0703/0708 4000 BR BKN005
BECMG 0710/0712 05007KT



MET'MAP, la Météo Aéronautique d'un coup d'oeil ! - Copyright ORBIFLY Décembre 2007 - Disclaimer

ORBIFLY MET'MAP TEAM :

Programmation & Développement : Alexandra Zaïnal
Sur une idée originale de : Baudouin d'Aumeries
Assistance à la programmation : Marc-Olivier Méhu
Soutien technique & logistique : Manuel Goepfert

Contact : metmap@orbifly.com




SOURCES & CREDITS :

   NOAA